.
WxDataArchive / Data Records for 2011-09-25
2011-09-24 September 2011 2011-09-26

Data Records for Sunday, 25 September 2011

Time	Temp	Chill	HIndex	Humid	Dewpt	 Wind 	HiWind	WindDir	Rain 	Barom 
-----	----	-----	------	-----	-----	------	------	-------	-----	----- 
00:00	53.9	53.9	53.9	96	52.8	0	0	---	0.00	30.013 
00:05	54.1	54.1	54.1	96	53.0	0	0	---	0.00	30.013 
00:10	54.1	54.1	54.1	96	53.0	0	0	---	0.00	30.013 
00:15	53.9	53.9	53.9	96	52.8	0	0	---	0.00	30.007 
00:20	53.8	53.8	53.8	96	52.7	0	0	---	0.00	30.007 
00:25	53.6	53.6	53.6	96	52.5	0	0	---	0.00	30.007 
00:30	53.5	53.5	53.5	96	52.4	0	0	---	0.00	29.999 
00:35	53.3	53.3	53.3	96	52.2	0	0	---	0.00	29.999 
00:40	53.2	53.2	53.2	96	52.1	0	0	---	0.00	29.999 
00:45	53.2	53.2	53.2	96	52.1	0	0	---	0.00	29.998 
00:50	53.1	53.1	53.1	96	52.0	0	0	---	0.00	29.998 
00:55	53.1	53.1	53.1	96	52.0	0	0	---	0.00	29.998 
01:00	53.1	53.1	53.1	96	52.0	0	0	---	0.00	29.995 
01:05	53.1	53.1	53.1	96	52.0	0	0	---	0.00	29.995 
01:10	53.2	53.2	53.2	96	52.1	0	2	90	0.00	29.995 
01:15	53.3	53.3	53.3	96	52.2	0	1	90	0.00	29.983 
01:20	53.3	53.3	53.3	96	52.2	0	1	90	0.00	29.983 
01:25	53.3	53.3	53.3	96	52.2	0	1	90	0.00	29.983 
01:30	53.3	53.3	53.3	96	52.2	0	1	90	0.00	29.981 
01:35	53.3	53.3	53.3	96	52.2	0	2	90	0.00	29.981 
01:40	53.2	53.2	53.2	96	52.1	0	1	90	0.00	29.981 
01:45	53.2	53.2	53.2	96	52.1	0	1	90	0.00	29.982 
01:50	53.1	53.1	53.1	96	52.0	0	0	---	0.00	29.982 
01:55	53.1	53.1	53.1	96	52.0	0	1	90	0.00	29.982 
02:00	52.9	52.9	52.9	96	51.8	0	1	90	0.00	29.981 
02:05	52.9	52.9	52.9	96	51.8	0	1	90	0.00	29.981 
02:10	52.9	52.9	52.9	96	51.8	0	2	90	0.00	29.981 
02:15	52.8	52.8	52.8	96	51.7	1	3	90	0.00	29.977 
02:20	52.8	52.8	52.8	96	51.7	0	2	90	0.00	29.977 
02:25	52.6	52.6	52.6	96	51.5	1	2	90	0.00	29.977 
02:30	52.5	52.5	52.5	96	51.4	1	3	90	0.00	29.978 
02:35	52.5	52.5	52.5	96	51.4	0	2	90	0.00	29.978 
02:40	52.3	52.3	52.3	96	51.2	1	2	90	0.00	29.978 
02:45	52.3	52.3	52.3	96	51.2	1	2	90	0.00	29.971 
02:50	52.2	52.2	52.2	96	51.1	0	2	90	0.00	29.971 
02:55	52.2	52.2	52.2	96	51.1	0	2	90	0.00	29.971 
03:00	52.0	52.0	52.0	96	50.9	1	2	90	0.00	29.964 
03:05	52.0	52.0	52.0	96	50.9	1	2	90	0.00	29.964 
03:10	51.9	51.9	51.9	96	50.8	0	2	90	0.00	29.964 
03:15	51.9	51.9	51.9	96	50.8	1	4	90	0.00	29.964 
03:20	51.7	51.7	51.7	96	50.6	1	3	90	0.00	29.964 
03:25	51.7	51.7	51.7	96	50.6	1	2	90	0.00	29.964 
03:30	51.6	51.6	51.6	96	50.5	0	2	90	0.00	29.960 
03:35	51.6	51.6	51.6	96	50.5	0	1	90	0.00	29.960 
03:40	51.4	51.4	51.4	96	50.3	0	1	90	0.00	29.960 
03:45	51.3	51.3	51.3	96	50.2	0	1	90	0.00	29.962 
03:50	51.3	51.3	51.3	96	50.2	0	2	90	0.00	29.962 
03:55	51.3	51.3	51.3	96	50.2	1	3	90	0.00	29.962 
04:00	51.3	51.3	51.3	96	50.2	1	4	90	0.00	29.956 
04:05	51.4	51.4	51.4	96	50.3	1	4	90	0.00	29.956 
04:10	51.4	51.4	51.4	96	50.3	1	3	90	0.00	29.956 
04:15	51.4	51.4	51.4	96	50.3	1	3	90	0.00	29.950 
04:20	51.4	51.4	51.4	96	50.3	1	7	90	0.00	29.950 
04:25	51.4	51.4	51.4	96	50.3	1	4	68	0.00	29.950 
04:30	51.4	51.4	51.4	96	50.3	1	2	68	0.00	29.958 
04:35	51.4	51.4	51.4	96	50.3	1	4	68	0.00	29.958 
04:40	51.4	51.4	51.4	95	50.0	0	3	68	0.00	29.958 
04:45	51.4	51.4	51.4	95	50.0	0	2	68	0.00	29.950 
04:50	51.4	51.4	51.4	95	50.0	0	1	68	0.00	29.950 
04:55	51.4	51.4	51.4	96	50.3	1	4	68	0.00	29.950 
05:00	51.7	51.7	51.7	96	50.6	1	3	248	0.00	29.978 
05:05	51.9	51.9	51.9	96	50.8	1	3	248	0.00	29.978 
05:10	52.0	52.0	52.0	96	50.9	0	1	248	0.00	29.978 
05:15	51.9	51.9	51.9	96	50.8	0	1	248	0.00	29.996 
05:20	51.9	51.9	51.9	96	50.8	0	1	248	0.00	29.996 
05:25	51.9	51.9	51.9	96	50.8	0	0	---	0.00	29.996 
05:30	51.9	51.9	51.9	96	50.8	0	0	---	0.00	29.993 
05:35	51.9	51.9	51.9	96	50.8	0	0	---	0.00	29.993 
05:40	52.0	52.0	52.0	96	50.9	0	0	---	0.00	29.993 
05:45	52.0	52.0	52.0	96	50.9	0	1	248	0.00	29.984 
05:50	52.2	52.2	52.2	96	51.1	0	1	248	0.00	29.984 
05:55	52.3	52.3	52.3	96	51.2	0	0	---	0.00	29.984 
06:00	52.5	52.5	52.5	96	51.4	0	2	248	0.00	29.974 
06:05	52.5	52.5	52.5	96	51.4	0	1	248	0.00	29.974 
06:10	52.6	52.6	52.6	96	51.5	0	0	---	0.00	29.974 
06:15	52.6	52.6	52.6	96	51.5	0	0	---	0.00	29.971 
06:20	52.6	52.6	52.6	96	51.5	0	2	248	0.00	29.971 
06:25	52.8	52.8	52.8	96	51.7	0	1	248	0.00	29.971 
06:30	52.8	52.8	52.8	96	51.7	0	1	248	0.00	29.967 
06:35	52.6	52.6	52.6	96	51.5	0	2	248	0.00	29.967 
06:40	52.6	52.6	52.6	96	51.5	0	1	248	0.00	29.967 
06:45	52.6	52.6	52.6	96	51.5	0	2	248	0.00	29.967 
06:50	52.6	52.6	52.6	96	51.5	0	1	248	0.00	29.967 
06:55	52.6	52.6	52.6	96	51.5	0	1	248	0.00	29.967 
07:00	52.5	52.5	52.5	96	51.4	0	0	---	0.00	29.970 
07:05	52.5	52.5	52.5	96	51.4	0	1	248	0.00	29.970 
07:10	52.5	52.5	52.5	96	51.4	0	2	248	0.00	29.970 
07:15	52.5	52.5	52.5	95	51.1	1	2	248	0.00	29.973 
07:20	52.5	52.5	52.5	95	51.1	0	2	248	0.00	29.973 
07:25	52.5	52.5	52.5	95	51.1	0	2	248	0.00	29.973 
07:30	52.5	52.5	52.5	95	51.1	0	0	---	0.00	29.984 
07:35	52.6	52.6	52.6	95	51.2	0	0	---	0.00	29.984 
07:40	52.6	52.6	52.6	95	51.2	0	0	---	0.00	29.984 
07:45	52.6	52.6	52.6	95	51.2	0	0	---	0.00	29.990 
07:50	52.6	52.6	52.6	95	51.2	0	0	---	0.00	29.990 
07:55	52.8	52.8	52.8	95	51.4	0	0	---	0.00	29.990 
08:00	52.8	52.8	52.8	95	51.4	0	1	248	0.00	29.985 
08:05	52.8	52.8	52.8	95	51.4	1	4	248	0.00	29.985 
08:10	52.8	52.8	52.8	95	51.4	1	4	68	0.00	29.985 
08:15	52.8	52.8	52.8	95	51.4	1	4	68	0.00	29.987 
08:20	52.8	52.8	52.8	95	51.4	1	3	68	0.00	29.987 
08:25	52.8	52.8	52.8	95	51.4	1	3	68	0.00	29.987 
08:30	52.9	52.9	52.9	95	51.5	0	3	68	0.00	29.986 
08:35	52.9	52.9	52.9	95	51.5	0	2	68	0.00	29.986 
08:40	52.9	52.9	52.9	95	51.5	1	3	68	0.00	29.986 
08:45	52.9	52.9	52.9	95	51.5	1	3	68	0.00	29.987 
08:50	52.9	52.9	52.9	95	51.5	1	4	68	0.00	29.987 
08:55	52.9	52.9	52.9	95	51.5	1	4	90	0.00	29.987 
09:00	53.1	53.1	53.1	95	51.7	0	2	90	0.00	29.983 
09:05	53.1	53.1	53.1	95	51.7	1	3	90	0.00	29.983 
09:10	53.2	53.2	53.2	95	51.8	0	2	90	0.00	29.983 
09:15	53.3	53.3	53.3	95	51.9	0	2	90	0.00	29.978 
09:20	53.5	53.5	53.5	95	52.1	0	2	90	0.00	29.978 
09:25	53.8	53.8	53.8	95	52.4	0	2	90	0.00	29.978 
09:30	53.9	53.9	53.9	95	52.5	0	1	90	0.00	29.982 
09:35	54.1	54.1	54.1	95	52.7	1	3	90	0.00	29.982 
09:40	54.2	54.2	54.2	95	52.8	1	4	90	0.00	29.982 
09:45	54.5	54.5	54.5	95	53.1	1	5	68	0.00	29.984 
09:50	54.8	54.8	54.8	95	53.4	1	4	68	0.00	29.984 
09:55	55.0	55.0	55.0	95	53.6	0	2	68	0.00	29.984 
10:00	55.1	55.1	55.1	94	53.4	1	3	68	0.00	29.983 
10:05	55.3	55.3	55.3	94	53.6	0	1	68	0.00	29.983 
10:10	55.4	55.4	55.4	94	53.7	0	2	68	0.00	29.983 
10:15	55.4	55.4	55.4	94	53.7	0	2	68	0.00	29.991 
10:20	55.6	55.6	55.6	94	53.9	0	2	68	0.00	29.991 
10:25	55.7	55.7	55.7	94	54.0	1	3	68	0.00	29.991 
10:30	55.9	55.9	55.9	94	54.2	1	3	68	0.00	29.982 
10:35	56.0	56.0	56.0	94	54.3	0	2	68	0.00	29.982 
10:40	56.2	56.2	56.2	94	54.5	0	2	68	0.00	29.982 
10:45	56.3	56.3	56.3	94	54.6	1	4	68	0.00	29.985 
10:50	56.5	56.5	56.5	94	54.8	1	3	68	0.00	29.985 
10:55	56.6	56.6	56.6	94	54.9	1	3	68	0.00	29.985 
11:00	56.7	56.7	56.7	93	54.7	1	5	90	0.00	29.972 
11:05	57.0	57.0	57.0	94	55.3	1	5	68	0.00	29.972 
11:10	57.2	57.2	57.2	93	55.2	1	4	90	0.00	29.972 
11:15	57.3	57.3	57.3	93	55.3	1	3	90	0.00	29.971 
11:20	57.5	57.5	57.5	93	55.5	0	1	90	0.00	29.971 
11:25	57.6	57.6	57.6	93	55.6	0	0	---	0.00	29.971 
11:30	57.6	57.6	57.6	93	55.6	0	0	---	0.01	29.978 
11:35	57.8	57.8	57.8	93	55.8	0	3	90	0.00	29.978 
11:40	57.8	57.8	57.8	93	55.8	0	1	90	0.00	29.978 
11:45	58.0	58.0	58.0	93	56.0	0	1	90	0.00	29.981 
11:50	58.0	58.0	58.0	93	56.0	0	1	90	0.00	29.981 
11:55	58.0	58.0	58.0	93	56.0	0	3	90	0.00	29.981 
12:00	58.1	58.1	58.1	93	56.1	0	0	---	0.00	30.004 
12:05	58.1	58.1	58.1	93	56.1	0	0	---	0.00	30.004 
12:10	58.3	58.3	58.3	93	56.3	0	0	---	0.00	30.004 
12:15	58.3	58.3	58.3	93	56.3	0	1	90	0.01	30.002 
12:20	58.4	58.4	58.4	93	56.4	0	1	90	0.00	30.002 
12:25	58.6	58.6	58.6	94	56.9	0	0	---	0.00	30.002 
12:30	58.7	58.7	58.7	94	57.0	0	2	90	0.00	29.998 
12:35	58.9	58.9	58.9	94	57.2	0	1	90	0.00	29.998 
12:40	58.9	58.9	58.9	93	56.9	0	1	90	0.01	29.998 
12:45	58.7	58.7	58.7	93	56.7	0	1	90	0.00	29.991 
12:50	58.7	58.7	58.7	93	56.7	0	0	---	0.00	29.991 
12:55	58.7	58.7	58.7	93	56.7	0	0	---	0.00	29.991 
13:00	58.7	58.7	58.7	93	56.7	0	1	90	0.00	29.981 
13:05	58.7	58.7	58.7	94	57.0	0	1	90	0.00	29.981 
13:10	58.9	58.9	58.9	94	57.2	0	0	---	0.00	29.981 
13:15	58.9	58.9	58.9	94	57.2	0	1	90	0.00	29.978 
13:20	58.9	58.9	58.9	94	57.2	0	1	90	0.00	29.978 
13:25	59.0	59.0	59.0	94	57.3	0	0	---	0.00	29.978 
13:30	59.0	59.0	59.0	94	57.3	0	1	90	0.00	29.977 
13:35	59.0	59.0	59.0	94	57.3	0	3	90	0.00	29.977 
13:40	59.0	59.0	59.0	94	57.3	0	2	90	0.00	29.977 
13:45	59.0	59.0	59.0	94	57.3	0	1	90	0.00	29.967 
13:50	59.0	59.0	59.0	94	57.3	0	0	---	0.00	29.967 
13:55	59.2	59.2	59.2	94	57.5	0	1	90	0.00	29.967 
14:00	59.2	59.2	59.2	94	57.5	0	1	90	0.00	29.968 
14:05	59.3	59.3	59.3	94	57.6	0	1	90	0.00	29.968 
14:10	59.2	59.2	59.2	93	57.2	0	1	90	0.00	29.968 
14:15	59.2	59.2	59.2	93	57.2	0	2	90	0.00	29.970 
14:20	59.5	59.5	59.5	93	57.5	0	1	90	0.00	29.970 
14:25	59.8	59.8	59.8	93	57.8	0	0	---	0.00	29.970 
14:30	59.9	59.9	59.9	93	57.9	0	0	---	0.00	29.976 
14:35	60.2	60.2	60.2	93	58.2	0	1	90	0.00	29.976 
14:40	60.5	60.5	60.5	93	58.5	0	2	90	0.00	29.976 
14:45	60.7	60.7	60.7	92	58.4	0	1	90	0.00	29.971 
14:50	60.7	60.7	60.7	92	58.4	0	1	90	0.00	29.971 
14:55	60.7	60.7	60.7	91	58.1	0	2	90	0.00	29.971 
15:00	60.5	60.5	60.5	91	57.9	0	1	90	0.00	29.963 
15:05	60.7	60.7	60.7	90	57.7	0	1	90	0.00	29.963 
15:10	60.7	60.7	60.7	90	57.7	0	0	---	0.00	29.963 
15:15	60.9	60.9	60.9	90	57.9	0	1	90	0.00	29.959 
15:20	61.0	61.0	61.0	89	57.7	0	1	90	0.00	29.959 
15:25	61.0	61.0	61.0	89	57.7	0	1	90	0.00	29.959 
15:30	61.2	61.2	61.2	89	57.9	0	1	90	0.00	29.960 
15:35	61.0	61.0	61.0	88	57.4	0	0	---	0.00	29.960 
15:40	60.9	60.9	60.9	88	57.3	0	0	---	0.00	29.960 
15:45	61.0	61.0	61.0	88	57.4	0	1	90	0.00	29.964 
15:50	61.0	61.0	61.0	88	57.4	0	1	90	0.00	29.964 
15:55	61.0	61.0	61.0	88	57.4	0	2	90	0.00	29.964 
16:00	61.2	61.2	61.2	88	57.6	0	1	90	0.00	29.948 
16:05	61.0	61.0	61.0	87	57.1	0	2	90	0.00	29.948 
16:10	60.9	60.9	60.9	85	56.4	0	1	90	0.00	29.948 
16:15	60.9	60.9	60.9	85	56.4	0	2	90	0.00	29.947 
16:20	60.9	60.9	60.9	85	56.4	0	1	90	0.00	29.947 
16:25	60.9	60.9	60.9	86	56.7	0	2	90	0.00	29.947 
16:30	60.9	60.9	60.9	85	56.4	0	3	90	0.00	29.941 
16:35	60.9	60.9	60.9	86	56.7	0	1	90	0.00	29.941 
16:40	60.7	60.7	60.7	85	56.2	0	1	90	0.00	29.941 
16:45	60.7	60.7	60.7	86	56.5	0	0	---	0.00	29.945 
16:50	60.9	60.9	60.9	86	56.7	0	0	---	0.00	29.945 
16:55	61.0	61.0	61.0	86	56.8	0	0	---	0.00	29.945 
17:00	61.3	61.3	61.3	86	57.1	0	0	---	0.00	29.935 
17:05	61.5	61.5	61.5	85	56.9	0	3	90	0.00	29.935 
17:10	61.5	61.5	61.5	84	56.6	0	2	90	0.00	29.935 
17:15	61.6	61.6	61.6	85	57.0	0	2	90	0.00	29.930 
17:20	61.5	61.5	61.5	85	56.9	0	2	90	0.00	29.930 
17:25	61.5	61.5	61.5	84	56.6	0	0	---	0.00	29.930 
17:30	61.3	61.3	61.3	84	56.4	0	2	90	0.00	29.929 
17:35	61.2	61.2	61.2	84	56.3	0	1	90	0.00	29.929 
17:40	60.9	60.9	60.9	84	56.0	0	0	---	0.00	29.929 
17:45	60.7	60.7	60.7	84	55.8	0	0	---	0.00	29.933 
17:50	60.5	60.5	60.5	86	56.3	0	0	---	0.01	29.933 
17:55	60.4	60.4	60.4	87	56.5	0	0	---	0.00	29.933 
18:00	60.2	60.2	60.2	87	56.3	0	0	---	0.00	29.931 
18:05	60.2	60.2	60.2	88	56.6	0	0	---	0.00	29.931 
18:10	60.2	60.2	60.2	88	56.6	0	0	---	0.00	29.931 
18:15	60.1	60.1	60.1	89	56.8	0	0	---	0.00	29.936 
18:20	60.1	60.1	60.1	89	56.8	0	0	---	0.00	29.936 
18:25	60.1	60.1	60.1	89	56.8	0	0	---	0.00	29.936 
18:30	60.1	60.1	60.1	90	57.2	0	0	---	0.00	29.935 
18:35	59.9	59.9	59.9	90	57.0	0	0	---	0.00	29.935 
18:40	59.8	59.8	59.8	90	56.9	0	0	---	0.01	29.935 
18:45	59.8	59.8	59.8	91	57.2	0	0	---	0.00	29.930 
18:50	59.6	59.6	59.6	91	57.0	0	0	---	0.00	29.930 
18:55	59.5	59.5	59.5	91	56.9	0	0	---	0.00	29.930 
19:00	59.3	59.3	59.3	91	56.7	0	0	---	0.00	29.933 
19:05	59.2	59.2	59.2	92	56.9	0	0	---	0.01	29.933 
19:10	59.0	59.0	59.0	92	56.7	0	0	---	0.01	29.933 
19:15	58.9	58.9	58.9	92	56.6	0	0	---	0.00	29.923 
19:20	58.7	58.7	58.7	92	56.4	0	0	---	0.01	29.923 
19:25	58.6	58.6	58.6	92	56.3	0	0	---	0.00	29.923 
19:30	58.4	58.4	58.4	92	56.1	0	0	---	0.00	29.917 
19:35	58.3	58.3	58.3	92	56.0	0	0	---	0.00	29.917 
19:40	58.3	58.3	58.3	93	56.3	0	0	---	0.00	29.917 
19:45	58.3	58.3	58.3	93	56.3	0	0	---	0.00	29.919 
19:50	58.1	58.1	58.1	93	56.1	0	0	---	0.00	29.919 
19:55	58.1	58.1	58.1	93	56.1	0	1	90	0.00	29.919 
20:00	58.1	58.1	58.1	94	56.4	0	2	90	0.01	29.900 
20:05	58.0	58.0	58.0	94	56.3	0	2	90	0.00	29.900 
20:10	58.0	58.0	58.0	94	56.3	0	0	---	0.00	29.900 
20:15	58.0	58.0	58.0	94	56.3	0	0	---	0.01	29.903 
20:20	58.0	58.0	58.0	94	56.3	0	0	---	0.01	29.903 
20:25	58.0	58.0	58.0	94	56.3	0	0	---	0.00	29.903 
20:30	58.0	58.0	58.0	94	56.3	0	1	90	0.01	29.908 
20:35	58.0	58.0	58.0	94	56.3	0	1	90	0.01	29.908 
20:40	57.8	57.8	57.8	94	56.1	0	0	---	0.01	29.908 
20:45	57.8	57.8	57.8	95	56.4	0	0	---	0.01	29.897 
20:50	57.8	57.8	57.8	95	56.4	0	1	90	0.00	29.897 
20:55	57.8	57.8	57.8	95	56.4	0	2	90	0.00	29.897 
21:00	57.8	57.8	57.8	95	56.4	0	1	90	0.00	29.886 
21:05	57.6	57.6	57.6	95	56.2	0	1	90	0.00	29.886 
21:10	57.6	57.6	57.6	95	56.2	0	0	---	0.00	29.886 
21:15	57.6	57.6	57.6	95	56.2	0	0	---	0.00	29.871 
21:20	57.6	57.6	57.6	95	56.2	0	0	---	0.00	29.871 
21:25	57.5	57.5	57.5	95	56.1	0	0	---	0.00	29.871 
21:30	57.5	57.5	57.5	95	56.1	0	0	---	0.00	29.859 
21:35	57.3	57.3	57.3	95	55.9	0	0	---	0.00	29.859 
21:40	57.3	57.3	57.3	95	55.9	0	0	---	0.00	29.859 
21:45	57.3	57.3	57.3	95	55.9	0	0	---	0.00	29.843 
21:50	57.2	57.2	57.2	95	55.8	0	0	---	0.00	29.843 
21:55	57.2	57.2	57.2	95	55.8	0	0	---	0.00	29.843 
22:00	57.2	57.2	57.2	95	55.8	0	1	90	0.00	29.852 
22:05	57.2	57.2	57.2	95	55.8	0	0	---	0.00	29.852 
22:10	57.2	57.2	57.2	95	55.8	0	0	---	0.00	29.852 
22:15	57.2	57.2	57.2	95	55.8	0	0	---	0.00	29.852 
22:20	57.0	57.0	57.0	95	55.6	0	0	---	0.00	29.852 
22:25	57.0	57.0	57.0	95	55.6	0	0	---	0.00	29.852 
22:30	57.0	57.0	57.0	96	55.9	0	0	---	0.00	29.849 
22:35	57.0	57.0	57.0	96	55.9	0	0	---	0.00	29.849 
22:40	57.2	57.2	57.2	96	56.1	0	1	90	0.00	29.849 
22:45	57.2	57.2	57.2	96	56.1	0	2	90	0.00	29.850 
22:50	57.2	57.2	57.2	96	56.1	1	2	90	0.00	29.850 
22:55	57.2	57.2	57.2	96	56.1	0	3	90	0.00	29.850 
23:00	57.2	57.2	57.2	96	56.1	1	5	90	0.00	29.837 
23:05	57.2	57.2	57.2	96	56.1	1	3	90	0.00	29.837 
23:10	57.2	57.2	57.2	96	56.1	1	3	90	0.00	29.837 
23:15	57.2	57.2	57.2	96	56.1	1	3	90	0.00	29.850 
23:20	57.2	57.2	57.2	96	56.1	1	3	90	0.00	29.850 
23:25	57.2	57.2	57.2	96	56.1	1	3	90	0.00	29.850 
23:30	57.2	57.2	57.2	96	56.1	1	3	90	0.00	29.856 
23:35	57.2	57.2	57.2	96	56.1	0	2	90	0.01	29.856 
23:40	57.2	57.2	57.2	96	56.1	1	4	90	0.00	29.856 
23:45	57.2	57.2	57.2	96	56.1	0	3	90	0.01	29.861 
23:50	57.2	57.2	57.2	96	56.1	1	4	90	0.00	29.861 
23:55	57.2	57.2	57.2	96	56.1	1	3	90	0.01	29.861 

CoCoRaHS
IN-AL-39
A2 Web Hosting
Creative Commons License
GoDaddy
search engine by freefind advanced

loaded 2018-11-17 00:05:37 • last modified 2010-11-18 10:43:29
Privacy PolicyDisclaimer
• wx.awcolley.com is powered by PmWiki v.2002016 •
• all content (unless otherwise noted) © 2018 A W Colley